Time;durP1;ratioP1;P1;durP2;ratioP2;P2;SDS_P1;SDS_P2;PMS_P1;PMS_P2;Temp;Humidity;BMP_temperature;BMP_pressure;BME280_temperature;BME280_humidity;BME280_pressure;Samples;Min_cycle;Max_cycle;Signal;HPM_P1;HPM_P2
2023/09/27 00:00:28;;;;;;;24.65;16.85;;;;;;;11.84;100.00;96439.72;1023744;28;20436;-76
2023/09/27 00:00:58;;;;;;;28.50;17.63;;;;;;;11.80;100.00;96441.22;1023544;29;20118;-76
2023/09/27 00:01:29;;;;;;;24.67;16.17;;;;;;;11.79;100.00;96439.66;1023332;28;20039;-76
2023/09/27 00:01:59;;;;;;;24.50;16.90;;;;;;;11.78;100.00;96441.50;1023558;29;20362;-76
2023/09/27 00:02:30;;;;;;;25.35;16.77;;;;;;;11.76;100.00;96437.53;1015516;29;20918;-76
2023/09/27 00:03:01;;;;;;;25.17;16.50;;;;;;;11.75;100.00;96441.22;1020680;29;20095;-76
2023/09/27 00:03:31;;;;;;;22.70;16.30;;;;;;;11.72;100.00;96436.44;1019532;29;20031;-76
2023/09/27 00:04:02;;;;;;;22.90;16.33;;;;;;;11.72;100.00;96436.44;1019507;28;20026;-76
2023/09/27 00:04:33;;;;;;;26.23;16.55;;;;;;;11.70;100.00;96435.91;1022809;29;20823;-76
2023/09/27 00:05:06;;;;;;;23.25;15.80;;;;;;;11.64;100.00;96424.56;1023820;28;20027;-76
2023/09/27 00:05:37;;;;;;;24.83;17.27;;;;;;;11.65;100.00;96439.28;1028185;28;20113;-75
2023/09/27 00:06:08;;;;;;;25.63;16.50;;;;;;;11.60;100.00;96417.44;1028286;28;20038;-76
2023/09/27 00:06:38;;;;;;;26.70;16.80;;;;;;;11.65;100.00;96430.63;1023327;28;20027;-75
2023/09/27 00:07:08;;;;;;;27.65;17.15;;;;;;;11.64;100.00;96429.84;1019995;29;20039;-76
2023/09/27 00:07:40;;;;;;;22.00;16.00;;;;;;;11.59;100.00;96437.66;1023628;28;20473;-77
2023/09/27 00:08:11;;;;;;;24.90;16.65;;;;;;;11.62;100.00;96436.38;1019470;29;20028;-76
2023/09/27 00:08:41;;;;;;;24.35;15.98;;;;;;;11.59;100.00;96439.50;1023817;28;20031;-75
2023/09/27 00:09:12;;;;;;;21.73;15.20;;;;;;;11.55;100.00;96426.88;1019564;29;20036;-76
2023/09/27 00:09:42;;;;;;;23.77;15.43;;;;;;;11.50;100.00;96424.22;1019510;29;20046;-77
2023/09/27 00:10:13;;;;;;;25.33;15.70;;;;;;;11.54;100.00;96430.53;1023644;29;20070;-76
2023/09/27 00:10:43;;;;;;;26.23;16.15;;;;;;;11.45;100.00;96426.78;1019661;29;20026;-76
2023/09/27 00:11:14;;;;;;;23.60;16.55;;;;;;;11.48;100.00;96425.50;1023799;28;20031;-75
2023/09/27 00:11:44;;;;;;;24.75;16.42;;;;;;;11.47;100.00;96435.22;1020306;28;20409;-75
2023/09/27 00:12:15;;;;;;;24.95;16.98;;;;;;;11.49;100.00;96438.38;1019429;29;20024;-76
2023/09/27 00:12:46;;;;;;;25.02;17.13;;;;;;;11.52;100.00;96431.84;1019584;29;20031;-76
2023/09/27 00:13:17;;;;;;;24.35;17.17;;;;;;;11.52;100.00;96434.47;1020964;28;20031;-76
2023/09/27 00:13:48;;;;;;;24.77;16.88;;;;;;;11.52;100.00;96432.63;1019684;29;20027;-76
2023/09/27 00:14:18;;;;;;;23.05;16.00;;;;;;;11.46;100.00;96428.34;1023060;28;20440;-77
2023/09/27 00:14:49;;;;;;;24.63;16.05;;;;;;;11.52;100.00;96432.63;1023129;29;20031;-76
2023/09/27 00:15:19;;;;;;;22.88;16.35;;;;;;;11.48;100.00;96425.50;1023561;29;20027;-75
2023/09/27 00:15:50;;;;;;;25.63;15.80;;;;;;;11.50;100.00;96424.22;1023449;29;20031;-75
2023/09/27 00:16:20;;;;;;;27.08;16.65;;;;;;;11.39;100.00;96417.28;1027639;28;20510;-76
2023/09/27 00:16:51;;;;;;;25.05;16.83;;;;;;;11.47;100.00;96429.97;1023241;28;20508;-76
2023/09/27 00:17:22;;;;;;;25.42;15.43;;;;;;;11.48;100.00;96428.13;1031470;28;20030;-76
2023/09/27 00:17:52;;;;;;;27.45;16.25;;;;;;;11.48;100.00;96426.28;1027532;28;20031;-76
2023/09/27 00:18:23;;;;;;;26.30;15.73;;;;;;;11.43;100.00;96423.59;1029563;28;20487;-76
2023/09/27 00:18:53;;;;;;;19.33;14.27;;;;;;;11.39;100.00;96417.28;1027631;28;20118;-77
2023/09/27 00:19:25;;;;;;;21.05;14.88;;;;;;;11.44;100.00;96417.31;1019594;29;20038;-75
2023/09/27 00:19:56;;;;;;;22.58;15.32;;;;;;;11.39;100.00;96417.28;1019463;29;20031;-77
2023/09/27 00:20:26;;;;;;;24.00;15.85;;;;;;;11.42;100.00;96422.03;1019489;29;20032;-75
2023/09/27 00:20:57;;;;;;;22.95;15.93;;;;;;;11.41;100.00;96420.44;1019710;29;20758;-76
2023/09/27 00:21:27;;;;;;;25.85;16.75;;;;;;;11.40;100.00;96421.50;1023578;29;20031;-76
2023/09/27 00:21:57;;;;;;;22.90;15.15;;;;;;;11.40;100.00;96424.13;1022564;29;20035;-75
2023/09/27 00:22:28;;;;;;;26.90;16.65;;;;;;;11.38;100.00;96414.91;1019542;29;20535;-76
2023/09/27 00:23:01;;;;;;;25.67;16.80;;;;;;;11.33;100.00;96419.09;1016481;29;20428;-76
2023/09/27 00:23:32;;;;;;;25.27;16.92;;;;;;;11.36;100.00;96423.03;1016062;29;20524;-76
2023/09/27 00:24:02;;;;;;;24.13;16.35;;;;;;;11.30;100.00;96410.88;1019298;29;20490;-76
2023/09/27 00:24:34;;;;;;;25.20;16.70;;;;;;;11.31;100.00;96413.28;1018848;29;20043;-76
2023/09/27 00:25:05;;;;;;;25.20;16.17;;;;;;;11.35;100.00;96410.94;1016064;29;20032;-76
2023/09/27 00:25:35;;;;;;;26.63;16.13;;;;;;;11.37;100.00;96415.94;1019792;29;20023;-75
2023/09/27 00:26:05;;;;;;;23.35;16.13;;;;;;;11.37;100.00;96419.38;1027352;28;20652;-77
2023/09/27 00:26:36;;;;;;;23.55;15.88;;;;;;;11.33;100.00;96415.63;1027398;28;20031;-76
2023/09/27 00:27:07;;;;;;;23.02;16.02;;;;;;;11.31;100.00;96409.84;1031208;28;20030;-76
2023/09/27 00:27:38;;;;;;;22.75;15.07;;;;;;;11.22;100.00;96406.88;1031367;28;20507;-76
2023/09/27 00:28:08;;;;;;;21.67;15.32;;;;;;;11.22;100.00;96406.88;1031434;28;20084;-76
2023/09/27 00:28:38;;;;;;;30.25;16.73;;;;;;;11.24;100.00;96419.78;1019312;29;20031;-76
2023/09/27 00:29:09;;;;;;;23.80;15.38;;;;;;;11.21;100.00;96420.28;1019339;29;20040;-76
2023/09/27 00:29:40;;;;;;;25.92;15.65;;;;;;;11.20;100.00;96421.31;1019528;29;20020;-79
2023/09/27 00:30:14;;;;;;;22.30;15.52;;;;;;;11.20;100.00;96413.41;1022523;28;20027;-76
2023/09/27 00:30:44;;;;;;;21.10;14.95;;;;;;;11.20;100.00;96416.03;1023792;28;20110;-76
2023/09/27 00:31:15;;;;;;;21.75;15.07;;;;;;;11.19;100.00;96412.63;1028028;28;20072;-76
2023/09/27 00:31:45;;;;;;;25.05;15.23;;;;;;;11.17;100.00;96427.06;1031548;28;20037;-76
2023/09/27 00:32:16;;;;;;;23.50;16.33;;;;;;;11.14;100.00;96419.69;1031426;28;20912;-77
2023/09/27 00:32:46;;;;;;;25.98;15.35;;;;;;;11.14;100.00;96414.44;1035437;28;20026;-76
2023/09/27 00:33:17;;;;;;;29.95;15.90;;;;;;;11.14;100.00;96417.06;1031212;28;20173;-76
2023/09/27 00:33:47;;;;;;;25.42;15.75;;;;;;;11.13;100.00;96423.34;1023427;28;20031;-77
2023/09/27 00:34:18;;;;;;;25.88;15.50;;;;;;;11.05;100.00;96408.84;1025478;28;20096;-76
2023/09/27 00:34:48;;;;;;;27.10;16.58;;;;;;;11.11;100.00;96420.97;1027084;28;20507;-75
2023/09/27 00:35:20;;;;;;;22.65;15.25;;;;;;;11.02;100.00;96412.75;1027307;28;20026;-75
2023/09/27 00:35:50;;;;;;;20.63;14.27;;;;;;;11.06;100.00;96419.06;1023489;28;20058;-76
2023/09/27 00:36:21;;;;;;;22.83;13.73;;;;;;;11.00;100.00;96408.78;1023433;28;20133;-75
2023/09/27 00:36:51;;;;;;;20.58;14.18;;;;;;;11.01;100.00;96416.41;1023408;29;20032;-75
2023/09/27 00:37:22;;;;;;;20.83;14.63;;;;;;;10.95;100.00;96406.91;1027183;28;20030;-77
2023/09/27 00:37:52;;;;;;;21.17;14.65;;;;;;;10.93;100.00;96406.38;1023519;29;20031;-77
2023/09/27 00:38:23;;;;;;;21.23;14.63;;;;;;;10.95;100.00;96417.41;1023518;29;20035;-75
2023/09/27 00:38:53;;;;;;;22.05;15.15;;;;;;;10.92;100.00;96410.00;1023753;28;20031;-76
2023/09/27 00:39:24;;;;;;;24.85;14.60;;;;;;;10.95;100.00;96419.25;1027315;28;20504;-77
2023/09/27 00:39:55;;;;;;;24.00;15.02;;;;;;;10.95;100.00;96420.03;1027396;28;20031;-76
2023/09/27 00:40:26;;;;;;;22.77;14.55;;;;;;;10.92;100.00;96411.84;1019428;29;20020;-75
2023/09/27 00:40:57;;;;;;;22.85;15.25;;;;;;;10.97;100.00;96417.97;1027236;28;20054;-76
2023/09/27 00:41:27;;;;;;;22.17;15.75;;;;;;;10.95;100.00;96417.41;1023537;29;20023;-76
2023/09/27 00:41:57;;;;;;;22.08;15.00;;;;;;;10.90;100.00;96413.91;1027243;28;20031;-76
2023/09/27 00:42:28;;;;;;;21.58;14.35;;;;;;;10.88;100.00;96416.03;1023382;28;20427;-77
2023/09/27 00:42:58;;;;;;;20.25;14.07;;;;;;;10.87;100.00;96415.22;1027441;28;20034;-78
2023/09/27 00:43:30;;;;;;;20.38;14.32;;;;;;;10.85;100.00;96419.94;1031307;28;20082;-76
2023/09/27 00:44:01;;;;;;;19.45;14.15;;;;;;;10.85;100.00;96417.31;1026041;28;20035;-76
2023/09/27 00:44:31;;;;;;;25.60;15.50;;;;;;;10.79;100.00;96408.56;1026854;28;20566;-78
2023/09/27 00:45:03;;;;;;;23.95;15.20;;;;;;;10.86;100.00;96413.63;1027398;28;20030;-76
2023/09/27 00:45:33;;;;;;;20.05;15.00;;;;;;;10.84;100.00;96416.50;1027524;28;20039;-76
2023/09/27 00:46:05;;;;;;;22.73;14.70;;;;;;;10.82;100.00;96413.31;1023217;29;20027;-77
2023/09/27 00:46:35;;;;;;;20.98;14.52;;;;;;;10.83;100.00;96414.13;1019620;29;20063;-79
2023/09/27 00:47:06;;;;;;;21.65;14.90;;;;;;;10.81;100.00;96411.75;1019486;29;20157;-77
2023/09/27 00:47:37;;;;;;;23.25;15.20;;;;;;;10.77;100.00;96404.63;1019259;29;20035;-77
2023/09/27 00:48:08;;;;;;;21.33;15.02;;;;;;;10.80;100.00;96404.13;1023374;29;20030;-77
2023/09/27 00:48:38;;;;;;;22.30;15.30;;;;;;;10.81;100.00;96406.50;1027294;28;20027;-76
2023/09/27 00:49:09;;;;;;;25.58;15.98;;;;;;;10.78;100.00;96412.25;1023361;29;20500;-76
2023/09/27 00:49:39;;;;;;;27.65;15.65;;;;;;;10.76;100.00;96410.91;1019256;28;20024;-76
2023/09/27 00:50:10;;;;;;;23.00;15.32;;;;;;;10.73;100.00;96408.75;1023431;29;20022;-76
2023/09/27 00:50:40;;;;;;;21.73;14.80;;;;;;;10.72;100.00;96401.94;1019459;29;20500;-76
2023/09/27 00:51:11;;;;;;;25.58;15.70;;;;;;;10.77;100.00;96409.88;1015360;29;20081;-75
2023/09/27 00:51:41;;;;;;;22.60;15.57;;;;;;;10.75;100.00;96402.22;1019452;29;20067;-75
2023/09/27 00:52:12;;;;;;;22.55;14.63;;;;;;;10.77;100.00;96404.63;1023274;29;20036;-76
2023/09/27 00:52:43;;;;;;;22.65;15.00;;;;;;;10.75;100.00;96404.06;1022723;29;20023;-76
2023/09/27 00:53:13;;;;;;;24.25;14.48;;;;;;;10.74;100.00;96399.88;1019409;29;20322;-76
2023/09/27 00:53:44;;;;;;;23.00;15.00;;;;;;;10.73;100.00;96399.09;1023228;29;20034;-77
2023/09/27 00:54:15;;;;;;;19.60;13.68;;;;;;;10.70;100.00;96406.66;1027013;28;20027;-81
2023/09/27 00:54:46;;;;;;;24.60;14.70;;;;;;;10.68;100.00;96401.63;1022265;29;20019;-75
2023/09/27 00:55:19;;;;;;;23.05;14.95;;;;;;;10.70;100.00;96410.06;1022884;29;20271;-77
2023/09/27 00:55:49;;;;;;;21.45;14.00;;;;;;;10.70;100.00;96410.06;1023030;28;20024;-77
2023/09/27 00:56:20;;;;;;;20.63;14.00;;;;;;;10.69;100.00;96410.31;1025454;28;20270;-76
2023/09/27 00:56:51;;;;;;;24.38;16.48;;;;;;;10.69;100.00;96407.69;1027448;28;20027;-75
2023/09/27 00:57:22;;;;;;;21.92;14.82;;;;;;;10.71;100.00;96410.84;1023409;28;20030;-75
2023/09/27 00:57:53;;;;;;;25.25;15.02;;;;;;;10.69;100.00;96408.47;1023056;29;20263;-77
2023/09/27 00:58:24;;;;;;;22.95;16.27;;;;;;;10.73;100.00;96412.19;1023086;29;20047;-76
2023/09/27 00:58:55;;;;;;;29.75;14.70;;;;;;;10.70;100.00;96410.06;1023319;29;20267;-75
2023/09/27 00:59:25;;;;;;;25.50;14.95;;;;;;;10.76;100.00;96416.16;1019323;29;20027;-76
2023/09/27 00:59:56;;;;;;;20.20;15.05;;;;;;;10.73;100.00;96416.63;1015368;29;20791;-77
2023/09/27 01:00:26;;;;;;;26.30;14.60;;;;;;;10.70;100.00;96410.06;1019332;29;20445;-76
2023/09/27 01:00:56;;;;;;;25.85;15.55;;;;;;;10.69;100.00;96408.47;1019366;29;20028;-76
2023/09/27 01:01:27;;;;;;;21.58;14.75;;;;;;;10.71;100.00;96410.84;1027016;28;20026;-75
2023/09/27 01:01:57;;;;;;;24.52;15.23;;;;;;;10.67;100.00;96415.03;1027373;28;20557;-76
2023/09/27 01:02:28;;;;;;;21.85;15.45;;;;;;;10.71;100.00;96408.22;1023251;28;20031;-75
2023/09/27 01:02:58;;;;;;;23.48;15.35;;;;;;;10.72;100.00;96412.44;1020077;29;20031;-76
2023/09/27 01:03:29;;;;;;;26.50;16.30;;;;;;;10.69;100.00;96408.47;1019127;29;20035;-74
2023/09/27 01:04:00;;;;;;;22.95;14.98;;;;;;;10.74;100.00;96415.63;1019228;29;20572;-77
2023/09/27 01:04:30;;;;;;;22.73;15.48;;;;;;;10.73;100.00;96414.81;1017434;29;20489;-78
2023/09/27 01:05:00;;;;;;;20.90;15.05;;;;;;;10.71;100.00;96413.47;1023193;28;20022;-76
2023/09/27 01:05:31;;;;;;;21.90;15.25;;;;;;;10.68;100.00;96411.34;1026979;28;20507;-74
2023/09/27 01:06:01;;;;;;;23.55;15.00;;;;;;;10.71;100.00;96410.84;1023386;29;20023;-76
2023/09/27 01:06:32;;;;;;;22.45;15.13;;;;;;;10.73;100.00;96408.75;1026978;28;20066;-75
2023/09/27 01:07:02;;;;;;;22.95;15.00;;;;;;;10.67;100.00;96407.94;1023311;29;20059;-77
2023/09/27 01:07:33;;;;;;;23.73;15.75;;;;;;;10.70;100.00;96411.91;1019373;29;20024;-76
2023/09/27 01:08:03;;;;;;;21.58;14.85;;;;;;;10.70;100.00;96415.31;1023034;29;20027;-78
2023/09/27 01:08:34;;;;;;;23.73;15.02;;;;;;;10.70;100.00;96404.81;1023100;29;20034;-76
2023/09/27 01:09:04;;;;;;;22.23;15.63;;;;;;;10.75;100.00;96406.69;1019169;29;20523;-77
2023/09/27 01:09:37;;;;;;;25.83;16.65;;;;;;;10.75;100.00;96406.69;1015315;29;20031;-75
2023/09/27 01:10:08;;;;;;;23.10;15.15;;;;;;;10.73;100.00;96403.50;1026991;28;20026;-76
2023/09/27 01:10:39;;;;;;;21.08;14.85;;;;;;;10.76;100.00;96408.28;1027618;28;20289;-76
2023/09/27 01:11:09;;;;;;;22.75;15.10;;;;;;;10.75;100.00;96406.69;1027528;28;20274;-76
2023/09/27 01:11:40;;;;;;;22.40;15.55;;;;;;;10.72;100.00;96402.72;1026948;28;20540;-77
2023/09/27 01:12:10;;;;;;;25.65;15.50;;;;;;;10.76;100.00;96403.03;1023064;29;20126;-75
2023/09/27 01:12:41;;;;;;;22.38;15.60;;;;;;;10.76;100.00;96408.28;1019242;29;20027;-77
2023/09/27 01:13:11;;;;;;;24.20;15.52;;;;;;;10.76;100.00;96405.66;1023076;29;20040;-76
2023/09/27 01:13:42;;;;;;;24.00;15.43;;;;;;;10.72;100.00;96407.97;1027207;28;20121;-75
2023/09/27 01:14:13;;;;;;;27.83;15.63;;;;;;;10.76;100.00;96405.66;1027140;28;20579;-76
2023/09/27 01:14:43;;;;;;;22.50;15.27;;;;;;;10.72;100.00;96407.97;1026264;28;20147;-76
2023/09/27 01:15:14;;;;;;;20.83;14.73;;;;;;;10.68;100.00;96401.63;1023066;29;20398;-76
2023/09/27 01:15:44;;;;;;;23.60;15.80;;;;;;;10.73;100.00;96409.59;1019083;29;20028;-76
2023/09/27 01:16:15;;;;;;;23.02;15.43;;;;;;;10.74;100.00;96405.13;1019208;29;20024;-75
2023/09/27 01:16:46;;;;;;;22.88;14.88;;;;;;;10.74;100.00;96400.66;1015315;29;20020;-76
2023/09/27 01:17:17;;;;;;;22.60;14.80;;;;;;;10.75;100.00;96411.94;1019663;28;20039;-76
2023/09/27 01:17:54;;;;;;;22.55;14.90;;;;;;;10.70;100.00;96404.03;1027109;28;20380;-76
2023/09/27 01:18:26;;;;;;;21.13;14.57;;;;;;;10.62;100.00;96397.38;1023159;28;20122;-76
2023/09/27 01:19:03;;;;;;;21.27;14.80;;;;;;;10.62;100.00;96394.75;1019123;29;20363;-75
2023/09/27 01:19:34;;;;;;;20.40;13.77;;;;;;;10.62;100.00;96398.16;1023275;29;20109;-77
2023/09/27 01:20:06;;;;;;;21.70;14.18;;;;;;;10.62;100.00;96408.66;1023125;29;20279;-76
2023/09/27 01:20:36;;;;;;;19.10;13.20;;;;;;;10.60;100.00;96405.50;1020469;29;20272;-76
2023/09/27 01:21:07;;;;;;;21.95;13.30;;;;;;;10.56;100.00;96399.16;1020014;28;20035;-75
2023/09/27 01:21:37;;;;;;;22.20;14.32;;;;;;;10.58;100.00;96396.28;1019482;29;20028;-76
2023/09/27 01:22:08;;;;;;;22.52;14.00;;;;;;;10.57;100.00;96406.00;1023293;28;20039;-77
2023/09/27 01:22:38;;;;;;;18.15;13.55;;;;;;;10.55;100.00;96400.19;1023064;28;20473;-76
2023/09/27 01:23:09;;;;;;;20.58;14.68;;;;;;;10.57;100.00;96398.13;1022845;29;20398;-76
2023/09/27 01:23:40;;;;;;;20.88;13.90;;;;;;;10.57;100.00;96400.75;1019144;29;20044;-76
2023/09/27 01:24:10;;;;;;;20.17;14.13;;;;;;;10.57;100.00;96397.31;1019104;29;20030;-77
2023/09/27 01:24:41;;;;;;;19.05;13.60;;;;;;;10.51;100.00;96391.22;1018755;29;20027;-76
2023/09/27 01:25:11;;;;;;;19.63;13.63;;;;;;;10.53;100.00;96402.28;1018992;29;20028;-75
2023/09/27 01:25:42;;;;;;;20.80;13.90;;;;;;;10.51;100.00;96400.94;1018958;29;20011;-76
2023/09/27 01:26:12;;;;;;;21.42;13.75;;;;;;;10.47;100.00;96394.59;1019318;29;20055;-78
2023/09/27 01:26:43;;;;;;;20.27;13.80;;;;;;;10.49;100.00;96403.78;1019192;28;20034;-79
2023/09/27 01:27:13;;;;;;;21.13;13.90;;;;;;;10.44;100.00;96389.84;1023031;28;20030;-76
2023/09/27 01:27:43;;;;;;;18.23;13.02;;;;;;;10.43;100.00;96391.66;1019236;29;20031;-75
2023/09/27 01:28:14;;;;;;;18.85;13.10;;;;;;;10.40;100.00;96399.22;1023025;28;20366;-77
2023/09/27 01:28:45;;;;;;;19.17;13.65;;;;;;;10.41;100.00;96390.31;1022647;28;20090;-76
2023/09/27 01:29:15;;;;;;;21.25;15.15;;;;;;;10.35;100.00;96381.59;1019002;29;20023;-76
2023/09/27 01:29:46;;;;;;;18.88;13.13;;;;;;;10.40;100.00;96394.00;1019214;29;20020;-75
2023/09/27 01:30:16;;;;;;;23.13;13.80;;;;;;;10.36;100.00;96399.72;1023068;29;20042;-75
2023/09/27 01:30:47;;;;;;;21.75;13.43;;;;;;;10.31;100.00;96383.13;1023319;28;20042;-78
2023/09/27 01:31:18;;;;;;;22.65;14.10;;;;;;;10.35;100.00;96397.31;1026936;28;20035;-76
2023/09/27 01:31:48;;;;;;;18.60;13.07;;;;;;;10.30;100.00;96384.94;1023019;29;20404;-75
2023/09/27 01:32:19;;;;;;;22.98;14.32;;;;;;;10.35;100.00;96392.06;1019030;29;20028;-76
2023/09/27 01:32:49;;;;;;;24.08;14.38;;;;;;;10.31;100.00;96385.75;1023162;29;20030;-77
2023/09/27 01:33:20;;;;;;;21.85;14.00;;;;;;;10.35;100.00;96389.47;1022883;29;20039;-76
2023/09/27 01:33:50;;;;;;;28.85;14.73;;;;;;;10.32;100.00;96382.88;1023187;29;20020;-76
2023/09/27 01:34:21;;;;;;;20.92;12.65;;;;;;;10.31;100.00;96383.13;1018538;29;20030;-78
2023/09/27 01:34:51;;;;;;;20.38;13.77;;;;;;;10.27;100.00;96385.44;1019223;28;20016;-76
2023/09/27 01:35:21;;;;;;;22.25;13.43;;;;;;;10.27;100.00;96388.06;1026858;28;20034;-76
2023/09/27 01:35:54;;;;;;;19.25;13.48;;;;;;;10.26;100.00;96386.50;1023192;28;20019;-77
2023/09/27 01:36:24;;;;;;;23.38;13.77;;;;;;;10.22;100.00;96376.69;1023304;28;20030;-76
2023/09/27 01:36:55;;;;;;;19.45;13.15;;;;;;;10.24;100.00;96385.09;1019411;28;20268;-76
2023/09/27 01:37:26;;;;;;;20.20;13.40;;;;;;;10.25;100.00;96386.69;1023014;29;20031;-76
2023/09/27 01:37:56;;;;;;;24.83;13.55;;;;;;;10.26;100.00;96378.63;1027010;28;20263;-77
2023/09/27 01:38:27;;;;;;;21.90;14.27;;;;;;;10.28;100.00;96379.16;1023197;29;20493;-75
2023/09/27 01:38:57;;;;;;;24.58;13.65;;;;;;;10.25;100.00;96373.56;1019179;29;20016;-76
2023/09/27 01:39:30;;;;;;;20.98;14.60;;;;;;;10.25;100.00;96374.34;1015015;29;20020;-76
2023/09/27 01:40:00;;;;;;;23.92;14.32;;;;;;;10.26;100.00;96377.78;1019443;29;20082;-76
2023/09/27 01:40:31;;;;;;;20.40;14.10;;;;;;;10.17;100.00;96369.56;1019167;29;20752;-77
2023/09/27 01:41:02;;;;;;;19.30;13.52;;;;;;;10.25;100.00;96376.19;1019748;28;20535;-77
2023/09/27 01:41:32;;;;;;;20.75;14.27;;;;;;;10.26;100.00;96383.88;1019318;29;20023;-77
2023/09/27 01:42:03;;;;;;;23.08;15.13;;;;;;;10.28;100.00;96376.53;1019313;29;20023;-76
2023/09/27 01:42:34;;;;;;;19.63;13.85;;;;;;;10.25;100.00;96376.97;1019493;29;20012;-75
2023/09/27 01:43:04;;;;;;;21.90;14.50;;;;;;;10.22;100.00;96368.81;1023498;28;20262;-76
2023/09/27 01:43:35;;;;;;;19.98;13.95;;;;;;;10.22;100.00;96372.22;1026932;28;20440;-77
2023/09/27 01:44:05;;;;;;;20.80;13.93;;;;;;;10.19;100.00;96369.28;1026983;28;20038;-76
2023/09/27 01:44:36;;;;;;;21.35;14.55;;;;;;;10.18;100.00;96365.09;1026345;28;20034;-76
2023/09/27 01:45:07;;;;;;;22.52;14.75;;;;;;;10.21;100.00;96375.88;1027182;28;20022;-76
2023/09/27 01:45:38;;;;;;;21.50;13.80;;;;;;;10.20;100.00;96379.56;1026969;28;20046;-77
2023/09/27 01:46:08;;;;;;;22.27;14.07;;;;;;;10.17;100.00;96368.75;1022907;28;20269;-76
2023/09/27 01:46:39;;;;;;;25.60;14.52;;;;;;;10.21;100.00;96375.09;1019401;29;20019;-75
2023/09/27 01:47:09;;;;;;;24.23;14.35;;;;;;;10.19;100.00;96372.72;1019078;29;20027;-75
2023/09/27 01:47:40;;;;;;;22.23;14.10;;;;;;;10.14;100.00;96376.06;1018031;29;20026;-75
2023/09/27 01:48:10;;;;;;;23.20;14.30;;;;;;;10.00;100.00;96353.88;1022864;29;20008;-76
2023/09/27 01:48:41;;;;;;;20.45;13.55;;;;;;;10.11;100.00;96378.38;1022966;29;20023;-76
2023/09/27 01:49:11;;;;;;;20.20;12.98;;;;;;;10.10;100.00;96374.97;1022901;28;20098;-76
2023/09/27 01:49:42;;;;;;;21.48;13.15;;;;;;;10.08;100.00;96382.28;1017278;29;20481;-77
2023/09/27 01:50:12;;;;;;;21.60;14.05;;;;;;;10.06;100.00;96380.94;1019069;29;20027;-76
2023/09/27 01:50:43;;;;;;;21.25;13.93;;;;;;;10.05;100.00;96377.53;1027115;28;20732;-76
2023/09/27 01:51:14;;;;;;;20.95;13.95;;;;;;;10.03;100.00;96376.19;1022992;29;20062;-75
2023/09/27 01:51:45;;;;;;;20.05;13.05;;;;;;;10.03;100.00;96377.00;1026926;28;20015;-76
2023/09/27 01:52:15;;;;;;;21.40;14.00;;;;;;;10.03;100.00;96376.19;1023129;29;20279;-77
2023/09/27 01:52:46;;;;;;;21.42;13.40;;;;;;;10.00;100.00;96379.31;1019212;29;20032;-76
2023/09/27 01:53:17;;;;;;;20.98;12.98;;;;;;;9.98;100.00;96379.53;1019550;28;20038;-75
2023/09/27 01:53:47;;;;;;;19.27;12.77;;;;;;;9.95;100.00;96377.38;1019204;29;20034;-77
2023/09/27 01:54:18;;;;;;;17.73;13.05;;;;;;;9.94;100.00;96372.41;1022513;28;20035;-77
2023/09/27 01:54:49;;;;;;;21.77;14.05;;;;;;;9.94;100.00;96375.03;1022859;28;20027;-77
2023/09/27 01:55:19;;;;;;;21.10;13.20;;;;;;;9.93;100.00;96374.22;1027028;28;20030;-75
2023/09/27 01:55:50;;;;;;;21.10;13.88;;;;;;;9.94;100.00;96381.06;1018785;29;20110;-76
2023/09/27 01:56:20;;;;;;;18.30;13.27;;;;;;;9.94;100.00;96378.44;1017121;29;20031;-77
2023/09/27 01:56:50;;;;;;;20.60;13.57;;;;;;;9.97;100.00;96383.19;1018821;29;20031;-75
2023/09/27 01:57:21;;;;;;;21.80;13.88;;;;;;;9.96;100.00;96379.00;1018944;29;20405;-75
2023/09/27 01:57:52;;;;;;;25.27;14.63;;;;;;;9.93;100.00;96376.84;1019764;28;20051;-77
2023/09/27 01:58:22;;;;;;;22.17;14.57;;;;;;;9.97;100.00;96385.03;1022936;29;20515;-77
2023/09/27 01:58:53;;;;;;;21.48;14.65;;;;;;;9.91;100.00;96381.53;1019051;29;20263;-75
2023/09/27 01:59:23;;;;;;;22.17;14.57;;;;;;;9.95;100.00;96384.47;1019033;29;20067;-76
2023/09/27 01:59:54;;;;;;;24.02;15.07;;;;;;;10.02;100.00;96388.50;1018793;29;20035;-76
2023/09/27 02:00:24;;;;;;;21.65;14.82;;;;;;;10.05;100.00;96393.25;1022965;28;20034;-77
2023/09/27 02:00:55;;;;;;;23.77;14.57;;;;;;;10.00;100.00;96390.56;1027024;28;20018;-77
2023/09/27 02:01:25;;;;;;;22.42;14.70;;;;;;;9.99;100.00;96388.97;1018692;29;20107;-76
2023/09/27 02:01:56;;;;;;;21.88;14.52;;;;;;;9.99;100.00;96394.22;1015162;29;20366;-77
2023/09/27 02:02:28;;;;;;;22.52;15.05;;;;;;;10.00;100.00;96393.19;1018975;29;20024;-76
2023/09/27 02:02:59;;;;;;;21.42;14.88;;;;;;;10.01;100.00;96396.59;1015486;29;20515;-75
2023/09/27 02:03:30;;;;;;;19.30;13.82;;;;;;;9.95;100.00;96395.75;1023337;28;20290;-76
2023/09/27 02:04:00;;;;;;;23.05;14.25;;;;;;;9.97;100.00;96391.06;1022766;29;20278;-76
2023/09/27 02:04:31;;;;;;;21.77;14.63;;;;;;;10.00;100.00;96397.66;1022364;29;20027;-76
2023/09/27 02:05:02;;;;;;;23.50;14.80;;;;;;;9.97;100.00;96395.50;1026706;28;20507;-76
2023/09/27 02:05:32;;;;;;;21.27;15.00;;;;;;;9.99;100.00;96399.47;1026995;28;20058;-76
2023/09/27 02:06:03;;;;;;;21.25;13.88;;;;;;;9.95;100.00;96393.13;1023250;28;20030;-76
2023/09/27 02:06:33;;;;;;;19.33;13.93;;;;;;;10.04;100.00;96404.78;1021101;29;20416;-76
2023/09/27 02:07:04;;;;;;;23.58;13.85;;;;;;;10.09;100.00;96406.66;1022851;29;20059;-76
2023/09/27 02:07:37;;;;;;;21.05;13.45;;;;;;;10.07;100.00;96408.75;1019023;29;20107;-75
2023/09/27 02:08:11;;;;;;;27.02;13.93;;;;;;;10.09;100.00;96410.09;1023386;28;20023;-76
2023/09/27 02:08:42;;;;;;;21.23;13.50;;;;;;;10.05;100.00;96401.13;1026910;28;20959;-76
2023/09/27 02:09:13;;;;;;;20.33;14.32;;;;;;;10.04;100.00;96406.63;1022751;29;20259;-76
2023/09/27 02:09:44;;;;;;;20.00;13.93;;;;;;;10.02;100.00;96400.81;1019338;29;20448;-76
2023/09/27 02:10:15;;;;;;;20.58;14.05;;;;;;;10.07;100.00;96406.13;1022905;29;20281;-76
2023/09/27 02:10:45;;;;;;;18.60;13.57;;;;;;;10.11;100.00;96408.03;1022874;28;20094;-75
2023/09/27 02:11:16;;;;;;;21.70;14.82;;;;;;;10.12;100.00;96406.19;1027009;28;20031;-76
2023/09/27 02:11:47;;;;;;;25.00;14.77;;;;;;;10.14;100.00;96412.78;1023075;28;20020;-76
2023/09/27 02:12:17;;;;;;;24.73;15.55;;;;;;;10.12;100.00;96404.34;1018655;29;20664;-76
2023/09/27 02:12:48;;;;;;;21.48;14.80;;;;;;;10.19;100.00;96414.66;1022890;28;20054;-78
2023/09/27 02:13:18;;;;;;;22.45;15.82;;;;;;;10.24;100.00;96416.56;1022700;29;20029;-75
2023/09/27 02:13:50;;;;;;;25.23;15.85;;;;;;;10.27;100.00;96408.25;1026853;28;20026;-77
2023/09/27 02:14:21;;;;;;;21.75;15.27;;;;;;;10.25;100.00;96405.84;1026739;28;20015;-78
2023/09/27 02:14:51;;;;;;;25.20;16.75;;;;;;;10.26;100.00;96407.47;1018712;29;20323;-75
2023/09/27 02:15:22;;;;;;;28.25;15.80;;;;;;;10.23;100.00;96402.69;1019342;28;20065;-77
2023/09/27 02:15:54;;;;;;;22.92;14.75;;;;;;;10.20;100.00;96405.00;1022922;29;20015;-76
2023/09/27 02:16:25;;;;;;;23.33;14.73;;;;;;;10.19;100.00;96408.63;1023662;28;20028;-76
2023/09/27 02:16:55;;;;;;;24.45;14.35;;;;;;;10.19;100.00;96412.03;1026784;28;20258;-76
2023/09/27 02:17:26;;;;;;;26.00;15.48;;;;;;;10.19;100.00;96406.00;1026771;28;20030;-78
2023/09/27 02:17:56;;;;;;;24.60;15.90;;;;;;;10.23;100.00;96405.28;1026922;28;20022;-77
2023/09/27 02:18:27;;;;;;;24.00;15.65;;;;;;;10.24;100.00;96412.13;1022612;29;20015;-76
2023/09/27 02:18:57;;;;;;;22.02;14.20;;;;;;;10.28;100.00;96412.47;1022779;28;20090;-77
2023/09/27 02:19:28;;;;;;;26.25;15.25;;;;;;;10.31;100.00;96406.72;1023137;28;20027;-78
2023/09/27 02:19:58;;;;;;;22.95;14.40;;;;;;;10.33;100.00;96404.66;1025706;28;20019;-76